sensor_id;sensor_type;location;lat;lon;timestamp;P1;durP1;ratioP1;P2;durP2;ratioP2
18931;SDS011;9598;50.954;3.112;2022-12-07T00:00:07;5.65;;;5.07;;
18931;SDS011;9598;50.954;3.112;2022-12-07T00:05:10;7.82;;;4.78;;
18931;SDS011;9598;50.954;3.112;2022-12-07T00:10:13;6.60;;;4.97;;
18931;SDS011;9598;50.954;3.112;2022-12-07T00:15:16;5.63;;;4.88;;
18931;SDS011;9598;50.954;3.112;2022-12-07T00:20:18;6.43;;;4.25;;
18931;SDS011;9598;50.954;3.112;2022-12-07T00:25:21;7.28;;;4.55;;
18931;SDS011;9598;50.954;3.112;2022-12-07T00:30:23;5.63;;;4.47;;
18931;SDS011;9598;50.954;3.112;2022-12-07T00:35:25;6.38;;;4.55;;
18931;SDS011;9598;50.954;3.112;2022-12-07T00:40:29;4.90;;;4.07;;
18931;SDS011;9598;50.954;3.112;2022-12-07T00:45:31;5.22;;;4.60;;
18931;SDS011;9598;50.954;3.112;2022-12-07T00:50:33;4.38;;;3.88;;
18931;SDS011;9598;50.954;3.112;2022-12-07T00:55:36;8.30;;;4.13;;
18931;SDS011;9598;50.954;3.112;2022-12-07T01:00:40;6.47;;;3.72;;
18931;SDS011;9598;50.954;3.112;2022-12-07T01:05:48;4.85;;;3.60;;
18931;SDS011;9598;50.954;3.112;2022-12-07T01:10:58;4.32;;;3.38;;
18931;SDS011;9598;50.954;3.112;2022-12-07T01:16:03;5.50;;;3.63;;
18931;SDS011;9598;50.954;3.112;2022-12-07T01:21:07;4.00;;;3.58;;
18931;SDS011;9598;50.954;3.112;2022-12-07T01:26:14;7.20;;;3.60;;
18931;SDS011;9598;50.954;3.112;2022-12-07T01:31:18;5.35;;;3.88;;
18931;SDS011;9598;50.954;3.112;2022-12-07T01:36:21;8.13;;;4.63;;
18931;SDS011;9598;50.954;3.112;2022-12-07T01:41:27;6.70;;;4.00;;
18931;SDS011;9598;50.954;3.112;2022-12-07T01:46:30;7.25;;;4.38;;
18931;SDS011;9598;50.954;3.112;2022-12-07T01:51:32;5.30;;;4.03;;
18931;SDS011;9598;50.954;3.112;2022-12-07T01:56:36;7.25;;;4.03;;
18931;SDS011;9598;50.954;3.112;2022-12-07T02:01:40;9.55;;;4.28;;
18931;SDS011;9598;50.954;3.112;2022-12-07T02:06:42;6.10;;;3.88;;
18931;SDS011;9598;50.954;3.112;2022-12-07T02:11:47;8.18;;;4.28;;
18931;SDS011;9598;50.954;3.112;2022-12-07T02:16:54;4.70;;;4.20;;
18931;SDS011;9598;50.954;3.112;2022-12-07T02:22:11;7.07;;;4.57;;
18931;SDS011;9598;50.954;3.112;2022-12-07T02:27:38;5.60;;;3.63;;
18931;SDS011;9598;50.954;3.112;2022-12-07T02:32:50;5.70;;;3.80;;
18931;SDS011;9598;50.954;3.112;2022-12-07T02:37:58;5.78;;;4.13;;
18931;SDS011;9598;50.954;3.112;2022-12-07T02:43:06;4.53;;;3.40;;
18931;SDS011;9598;50.954;3.112;2022-12-07T02:48:15;6.18;;;4.05;;
18931;SDS011;9598;50.954;3.112;2022-12-07T02:53:31;3.58;;;3.20;;
18931;SDS011;9598;50.954;3.112;2022-12-07T02:58:37;7.35;;;3.90;;
18931;SDS011;9598;50.954;3.112;2022-12-07T03:03:51;4.13;;;3.42;;
18931;SDS011;9598;50.954;3.112;2022-12-07T03:09:01;4.43;;;3.78;;
18931;SDS011;9598;50.954;3.112;2022-12-07T03:14:11;5.70;;;3.55;;
18931;SDS011;9598;50.954;3.112;2022-12-07T03:19:20;5.47;;;3.58;;
18931;SDS011;9598;50.954;3.112;2022-12-07T03:24:26;3.65;;;3.30;;
18931;SDS011;9598;50.954;3.112;2022-12-07T03:29:30;4.00;;;2.90;;
18931;SDS011;9598;50.954;3.112;2022-12-07T03:34:38;4.88;;;3.10;;
18931;SDS011;9598;50.954;3.112;2022-12-07T03:39:48;3.97;;;2.92;;
18931;SDS011;9598;50.954;3.112;2022-12-07T03:44:58;6.45;;;3.05;;
18931;SDS011;9598;50.954;3.112;2022-12-07T03:50:04;3.15;;;2.90;;
18931;SDS011;9598;50.954;3.112;2022-12-07T03:55:14;4.93;;;3.53;;
18931;SDS011;9598;50.954;3.112;2022-12-07T04:00:19;4.00;;;2.90;;
18931;SDS011;9598;50.954;3.112;2022-12-07T04:05:24;3.72;;;3.03;;
18931;SDS011;9598;50.954;3.112;2022-12-07T04:10:26;5.15;;;3.03;;
18931;SDS011;9598;50.954;3.112;2022-12-07T04:15:28;2.75;;;2.53;;
18931;SDS011;9598;50.954;3.112;2022-12-07T04:20:32;3.78;;;3.30;;
18931;SDS011;9598;50.954;3.112;2022-12-07T04:25:34;4.80;;;3.58;;
18931;SDS011;9598;50.954;3.112;2022-12-07T04:30:36;5.38;;;3.38;;
18931;SDS011;9598;50.954;3.112;2022-12-07T04:35:41;6.10;;;3.45;;
18931;SDS011;9598;50.954;3.112;2022-12-07T04:40:44;4.80;;;3.90;;
18931;SDS011;9598;50.954;3.112;2022-12-07T04:45:46;5.40;;;4.20;;
18931;SDS011;9598;50.954;3.112;2022-12-07T04:50:50;5.75;;;4.20;;
18931;SDS011;9598;50.954;3.112;2022-12-07T04:55:52;4.97;;;4.35;;
18931;SDS011;9598;50.954;3.112;2022-12-07T05:00:54;5.38;;;3.95;;
18931;SDS011;9598;50.954;3.112;2022-12-07T05:05:58;4.18;;;3.78;;
18931;SDS011;9598;50.954;3.112;2022-12-07T05:11:00;4.38;;;3.65;;
18931;SDS011;9598;50.954;3.112;2022-12-07T05:16:03;4.25;;;3.05;;
18931;SDS011;9598;50.954;3.112;2022-12-07T05:21:06;3.33;;;2.72;;
18931;SDS011;9598;50.954;3.112;2022-12-07T05:26:08;3.10;;;2.80;;
18931;SDS011;9598;50.954;3.112;2022-12-07T05:31:10;2.92;;;2.63;;
18931;SDS011;9598;50.954;3.112;2022-12-07T05:36:14;3.78;;;2.55;;
18931;SDS011;9598;50.954;3.112;2022-12-07T05:41:17;4.68;;;2.70;;
18931;SDS011;9598;50.954;3.112;2022-12-07T05:46:37;6.22;;;2.38;;
18931;SDS011;9598;50.954;3.112;2022-12-07T05:51:40;4.03;;;2.90;;
18931;SDS011;9598;50.954;3.112;2022-12-07T05:56:42;4.50;;;2.10;;
18931;SDS011;9598;50.954;3.112;2022-12-07T06:01:44;3.53;;;2.05;;
18931;SDS011;9598;50.954;3.112;2022-12-07T06:06:48;7.68;;;2.80;;
18931;SDS011;9598;50.954;3.112;2022-12-07T06:11:50;6.40;;;3.50;;
18931;SDS011;9598;50.954;3.112;2022-12-07T06:17:10;3.78;;;2.67;;
18931;SDS011;9598;50.954;3.112;2022-12-07T06:22:14;3.92;;;2.75;;
18931;SDS011;9598;50.954;3.112;2022-12-07T06:27:16;6.38;;;3.35;;
18931;SDS011;9598;50.954;3.112;2022-12-07T06:32:18;5.47;;;3.08;;
18931;SDS011;9598;50.954;3.112;2022-12-07T06:37:22;4.90;;;3.22;;
18931;SDS011;9598;50.954;3.112;2022-12-07T06:42:24;6.32;;;3.47;;
18931;SDS011;9598;50.954;3.112;2022-12-07T06:47:26;10.68;;;7.07;;
18931;SDS011;9598;50.954;3.112;2022-12-07T06:52:29;10.60;;;6.57;;
18931;SDS011;9598;50.954;3.112;2022-12-07T06:57:31;7.95;;;4.95;;
18931;SDS011;9598;50.954;3.112;2022-12-07T07:02:33;5.55;;;3.42;;
18931;SDS011;9598;50.954;3.112;2022-12-07T07:07:37;8.07;;;4.03;;
18931;SDS011;9598;50.954;3.112;2022-12-07T07:12:39;7.72;;;3.83;;
18931;SDS011;9598;50.954;3.112;2022-12-07T07:17:41;7.10;;;3.50;;
18931;SDS011;9598;50.954;3.112;2022-12-07T07:22:44;6.20;;;2.92;;
18931;SDS011;9598;50.954;3.112;2022-12-07T07:27:46;4.35;;;2.88;;
18931;SDS011;9598;50.954;3.112;2022-12-07T07:32:48;3.45;;;3.00;;
18931;SDS011;9598;50.954;3.112;2022-12-07T07:37:52;3.28;;;2.95;;
18931;SDS011;9598;50.954;3.112;2022-12-07T07:42:54;4.18;;;3.03;;
18931;SDS011;9598;50.954;3.112;2022-12-07T07:47:57;5.25;;;3.25;;
18931;SDS011;9598;50.954;3.112;2022-12-07T07:53:00;6.35;;;3.10;;
18931;SDS011;9598;50.954;3.112;2022-12-07T07:58:03;7.80;;;3.17;;
18931;SDS011;9598;50.954;3.112;2022-12-07T08:03:05;9.05;;;5.90;;
18931;SDS011;9598;50.954;3.112;2022-12-07T08:08:08;8.15;;;4.50;;
18931;SDS011;9598;50.954;3.112;2022-12-07T08:13:10;11.55;;;4.72;;
18931;SDS011;9598;50.954;3.112;2022-12-07T08:18:14;4.78;;;3.88;;
18931;SDS011;9598;50.954;3.112;2022-12-07T08:23:17;7.38;;;4.05;;
18931;SDS011;9598;50.954;3.112;2022-12-07T08:28:20;8.38;;;3.75;;
18931;SDS011;9598;50.954;3.112;2022-12-07T08:33:22;8.05;;;5.20;;
18931;SDS011;9598;50.954;3.112;2022-12-07T08:38:26;5.93;;;4.55;;
18931;SDS011;9598;50.954;3.112;2022-12-07T08:43:28;7.72;;;2.60;;
18931;SDS011;9598;50.954;3.112;2022-12-07T08:48:31;6.05;;;2.33;;
18931;SDS011;9598;50.954;3.112;2022-12-07T08:53:36;6.05;;;2.10;;
18931;SDS011;9598;50.954;3.112;2022-12-07T08:58:40;5.60;;;1.45;;
18931;SDS011;9598;50.954;3.112;2022-12-07T09:03:42;3.97;;;1.83;;
18931;SDS011;9598;50.954;3.112;2022-12-07T09:08:47;4.57;;;1.92;;
18931;SDS011;9598;50.954;3.112;2022-12-07T09:13:54;2.28;;;1.48;;
18931;SDS011;9598;50.954;3.112;2022-12-07T09:18:56;5.75;;;2.25;;
18931;SDS011;9598;50.954;3.112;2022-12-07T09:23:59;6.45;;;2.15;;
18931;SDS011;9598;50.954;3.112;2022-12-07T09:29:02;3.63;;;1.67;;
18931;SDS011;9598;50.954;3.112;2022-12-07T09:34:04;2.65;;;1.75;;
18931;SDS011;9598;50.954;3.112;2022-12-07T09:39:08;3.50;;;2.15;;
18931;SDS011;9598;50.954;3.112;2022-12-07T09:44:11;3.55;;;2.63;;
18931;SDS011;9598;50.954;3.112;2022-12-07T09:49:16;3.47;;;2.20;;
18931;SDS011;9598;50.954;3.112;2022-12-07T09:54:22;2.88;;;2.60;;
18931;SDS011;9598;50.954;3.112;2022-12-07T09:59:24;4.38;;;2.28;;
18931;SDS011;9598;50.954;3.112;2022-12-07T10:04:27;4.85;;;2.60;;
18931;SDS011;9598;50.954;3.112;2022-12-07T10:09:31;5.45;;;2.60;;
18931;SDS011;9598;50.954;3.112;2022-12-07T10:14:37;3.15;;;2.33;;
18931;SDS011;9598;50.954;3.112;2022-12-07T10:19:40;5.18;;;2.30;;
18931;SDS011;9598;50.954;3.112;2022-12-07T10:24:45;4.63;;;2.30;;
18931;SDS011;9598;50.954;3.112;2022-12-07T10:29:49;5.90;;;2.70;;
18931;SDS011;9598;50.954;3.112;2022-12-07T10:34:54;5.30;;;2.17;;
18931;SDS011;9598;50.954;3.112;2022-12-07T10:40:27;5.22;;;2.15;;
18931;SDS011;9598;50.954;3.112;2022-12-07T10:45:30;2.03;;;1.60;;
18931;SDS011;9598;50.954;3.112;2022-12-07T10:50:42;7.75;;;2.17;;
18931;SDS011;9598;50.954;3.112;2022-12-07T10:55:59;4.13;;;1.90;;
18931;SDS011;9598;50.954;3.112;2022-12-07T11:01:20;3.80;;;2.22;;
18931;SDS011;9598;50.954;3.112;2022-12-07T11:06:27;4.50;;;2.10;;
18931;SDS011;9598;50.954;3.112;2022-12-07T11:11:38;7.95;;;4.05;;
18931;SDS011;9598;50.954;3.112;2022-12-07T11:16:52;7.60;;;5.10;;
18931;SDS011;9598;50.954;3.112;2022-12-07T11:22:00;4.80;;;3.75;;
18931;SDS011;9598;50.954;3.112;2022-12-07T11:27:12;3.70;;;2.65;;
18931;SDS011;9598;50.954;3.112;2022-12-07T11:32:21;5.28;;;2.40;;
18931;SDS011;9598;50.954;3.112;2022-12-07T11:37:34;5.93;;;2.25;;
18931;SDS011;9598;50.954;3.112;2022-12-07T11:42:41;3.50;;;2.20;;
18931;SDS011;9598;50.954;3.112;2022-12-07T11:47:47;5.57;;;2.05;;
18931;SDS011;9598;50.954;3.112;2022-12-07T11:52:56;2.45;;;1.33;;
18931;SDS011;9598;50.954;3.112;2022-12-07T11:58:04;4.70;;;1.92;;
18931;SDS011;9598;50.954;3.112;2022-12-07T12:03:23;5.63;;;2.10;;
18931;SDS011;9598;50.954;3.112;2022-12-07T12:08:32;2.17;;;1.58;;
18931;SDS011;9598;50.954;3.112;2022-12-07T12:13:50;3.75;;;2.35;;
18931;SDS011;9598;50.954;3.112;2022-12-07T12:19:10;1.73;;;1.23;;
18931;SDS011;9598;50.954;3.112;2022-12-07T12:24:23;2.97;;;1.75;;
18931;SDS011;9598;50.954;3.112;2022-12-07T12:29:30;3.60;;;1.40;;
18931;SDS011;9598;50.954;3.112;2022-12-07T12:34:39;4.00;;;2.05;;
18931;SDS011;9598;50.954;3.112;2022-12-07T12:39:43;6.03;;;2.08;;
18931;SDS011;9598;50.954;3.112;2022-12-07T12:45:25;5.68;;;2.05;;
18931;SDS011;9598;50.954;3.112;2022-12-07T12:50:30;4.13;;;2.15;;
18931;SDS011;9598;50.954;3.112;2022-12-07T13:06:46;5.88;;;2.60;;
18931;SDS011;9598;50.954;3.112;2022-12-07T13:11:48;4.55;;;2.25;;
18931;SDS011;9598;50.954;3.112;2022-12-07T13:16:52;4.88;;;2.50;;
18931;SDS011;9598;50.954;3.112;2022-12-07T13:21:55;6.53;;;2.58;;
18931;SDS011;9598;50.954;3.112;2022-12-07T13:26:57;6.13;;;2.55;;
18931;SDS011;9598;50.954;3.112;2022-12-07T13:31:59;3.30;;;1.90;;
18931;SDS011;9598;50.954;3.112;2022-12-07T13:37:04;3.55;;;2.05;;
18931;SDS011;9598;50.954;3.112;2022-12-07T13:42:17;4.93;;;2.85;;
18931;SDS011;9598;50.954;3.112;2022-12-07T13:47:30;4.85;;;1.90;;
18931;SDS011;9598;50.954;3.112;2022-12-07T13:52:42;4.72;;;2.75;;
18931;SDS011;9598;50.954;3.112;2022-12-07T13:57:47;2.33;;;1.40;;
18931;SDS011;9598;50.954;3.112;2022-12-07T14:02:55;3.92;;;1.60;;
18931;SDS011;9598;50.954;3.112;2022-12-07T14:08:01;3.15;;;2.22;;
18931;SDS011;9598;50.954;3.112;2022-12-07T14:13:21;3.25;;;1.77;;
18931;SDS011;9598;50.954;3.112;2022-12-07T14:18:34;2.38;;;1.67;;
18931;SDS011;9598;50.954;3.112;2022-12-07T14:23:41;3.85;;;2.22;;
18931;SDS011;9598;50.954;3.112;2022-12-07T14:28:43;3.20;;;1.60;;
18931;SDS011;9598;50.954;3.112;2022-12-07T14:33:46;3.67;;;2.08;;
18931;SDS011;9598;50.954;3.112;2022-12-07T14:38:50;4.47;;;2.42;;
18931;SDS011;9598;50.954;3.112;2022-12-07T14:43:54;7.20;;;4.00;;
18931;SDS011;9598;50.954;3.112;2022-12-07T14:48:56;7.13;;;3.80;;
18931;SDS011;9598;50.954;3.112;2022-12-07T14:53:59;4.18;;;2.45;;
18931;SDS011;9598;50.954;3.112;2022-12-07T14:59:02;4.38;;;2.70;;
18931;SDS011;9598;50.954;3.112;2022-12-07T15:04:04;5.30;;;4.00;;
18931;SDS011;9598;50.954;3.112;2022-12-07T15:09:08;6.70;;;4.00;;
18931;SDS011;9598;50.954;3.112;2022-12-07T15:14:11;8.57;;;7.70;;
18931;SDS011;9598;50.954;3.112;2022-12-07T15:19:14;5.22;;;2.90;;
18931;SDS011;9598;50.954;3.112;2022-12-07T15:24:19;4.70;;;2.75;;
18931;SDS011;9598;50.954;3.112;2022-12-07T15:29:21;5.03;;;2.33;;
18931;SDS011;9598;50.954;3.112;2022-12-07T15:34:24;3.00;;;2.08;;
18931;SDS011;9598;50.954;3.112;2022-12-07T15:39:29;4.50;;;2.95;;
18931;SDS011;9598;50.954;3.112;2022-12-07T15:44:31;6.03;;;3.50;;
18931;SDS011;9598;50.954;3.112;2022-12-07T15:49:50;4.90;;;3.40;;
18931;SDS011;9598;50.954;3.112;2022-12-07T15:54:54;6.80;;;3.63;;
18931;SDS011;9598;50.954;3.112;2022-12-07T15:59:56;4.30;;;3.70;;
18931;SDS011;9598;50.954;3.112;2022-12-07T16:04:58;5.55;;;3.67;;
18931;SDS011;9598;50.954;3.112;2022-12-07T16:10:02;7.15;;;3.92;;
18931;SDS011;9598;50.954;3.112;2022-12-07T16:15:05;6.75;;;3.20;;
18931;SDS011;9598;50.954;3.112;2022-12-07T16:20:09;3.95;;;2.65;;
18931;SDS011;9598;50.954;3.112;2022-12-07T16:25:13;7.30;;;4.22;;
18931;SDS011;9598;50.954;3.112;2022-12-07T16:30:15;2.85;;;2.53;;
18931;SDS011;9598;50.954;3.112;2022-12-07T16:35:17;3.00;;;2.10;;
18931;SDS011;9598;50.954;3.112;2022-12-07T16:40:21;5.45;;;2.60;;
18931;SDS011;9598;50.954;3.112;2022-12-07T16:45:23;3.65;;;2.45;;
18931;SDS011;9598;50.954;3.112;2022-12-07T16:50:25;3.83;;;2.67;;
18931;SDS011;9598;50.954;3.112;2022-12-07T16:55:29;4.07;;;2.35;;
18931;SDS011;9598;50.954;3.112;2022-12-07T17:00:31;2.65;;;2.30;;
18931;SDS011;9598;50.954;3.112;2022-12-07T17:05:36;4.82;;;2.53;;
18931;SDS011;9598;50.954;3.112;2022-12-07T17:10:41;3.45;;;2.40;;
18931;SDS011;9598;50.954;3.112;2022-12-07T17:15:48;3.10;;;2.60;;
18931;SDS011;9598;50.954;3.112;2022-12-07T17:21:01;3.67;;;2.85;;
18931;SDS011;9598;50.954;3.112;2022-12-07T17:26:06;3.50;;;3.20;;
18931;SDS011;9598;50.954;3.112;2022-12-07T17:31:10;6.05;;;4.72;;
18931;SDS011;9598;50.954;3.112;2022-12-07T17:36:14;7.05;;;5.45;;
18931;SDS011;9598;50.954;3.112;2022-12-07T17:41:20;7.15;;;4.93;;
18931;SDS011;9598;50.954;3.112;2022-12-07T17:46:46;13.30;;;6.03;;
18931;SDS011;9598;50.954;3.112;2022-12-07T17:51:50;11.52;;;6.45;;
18931;SDS011;9598;50.954;3.112;2022-12-07T17:57:11;8.98;;;6.10;;
18931;SDS011;9598;50.954;3.112;2022-12-07T18:02:13;8.90;;;5.90;;
18931;SDS011;9598;50.954;3.112;2022-12-07T18:07:15;10.77;;;8.45;;
18931;SDS011;9598;50.954;3.112;2022-12-07T18:12:18;18.98;;;13.68;;
18931;SDS011;9598;50.954;3.112;2022-12-07T18:17:20;10.93;;;8.63;;
18931;SDS011;9598;50.954;3.112;2022-12-07T18:22:22;13.98;;;8.65;;
18931;SDS011;9598;50.954;3.112;2022-12-07T18:27:26;9.13;;;8.00;;
18931;SDS011;9598;50.954;3.112;2022-12-07T18:32:28;10.75;;;7.85;;
18931;SDS011;9598;50.954;3.112;2022-12-07T18:37:30;11.43;;;9.50;;
18931;SDS011;9598;50.954;3.112;2022-12-07T18:42:34;10.27;;;9.15;;
18931;SDS011;9598;50.954;3.112;2022-12-07T18:47:36;12.95;;;10.15;;
18931;SDS011;9598;50.954;3.112;2022-12-07T18:52:38;13.95;;;9.88;;
18931;SDS011;9598;50.954;3.112;2022-12-07T18:57:41;14.98;;;10.65;;
18931;SDS011;9598;50.954;3.112;2022-12-07T19:02:43;11.82;;;9.82;;
18931;SDS011;9598;50.954;3.112;2022-12-07T19:07:46;11.52;;;10.25;;
18931;SDS011;9598;50.954;3.112;2022-12-07T19:12:49;18.77;;;14.00;;
18931;SDS011;9598;50.954;3.112;2022-12-07T19:17:51;16.00;;;13.70;;
18931;SDS011;9598;50.954;3.112;2022-12-07T19:22:53;15.05;;;13.25;;
18931;SDS011;9598;50.954;3.112;2022-12-07T19:27:57;14.65;;;11.65;;
18931;SDS011;9598;50.954;3.112;2022-12-07T19:32:59;12.80;;;11.50;;
18931;SDS011;9598;50.954;3.112;2022-12-07T19:38:01;15.88;;;11.38;;
18931;SDS011;9598;50.954;3.112;2022-12-07T19:43:05;15.20;;;10.80;;
18931;SDS011;9598;50.954;3.112;2022-12-07T19:48:07;9.55;;;8.27;;
18931;SDS011;9598;50.954;3.112;2022-12-07T19:53:10;9.43;;;7.30;;
18931;SDS011;9598;50.954;3.112;2022-12-07T19:58:13;11.20;;;7.15;;
18931;SDS011;9598;50.954;3.112;2022-12-07T20:03:15;9.60;;;6.95;;
18931;SDS011;9598;50.954;3.112;2022-12-07T20:08:17;9.20;;;8.07;;
18931;SDS011;9598;50.954;3.112;2022-12-07T20:13:22;8.65;;;6.55;;
18931;SDS011;9598;50.954;3.112;2022-12-07T20:18:31;9.65;;;6.78;;
18931;SDS011;9598;50.954;3.112;2022-12-07T20:23:34;8.05;;;7.28;;
18931;SDS011;9598;50.954;3.112;2022-12-07T20:28:37;8.30;;;7.50;;
18931;SDS011;9598;50.954;3.112;2022-12-07T20:33:40;8.80;;;7.85;;
18931;SDS011;9598;50.954;3.112;2022-12-07T20:38:45;8.43;;;7.65;;
18931;SDS011;9598;50.954;3.112;2022-12-07T20:43:48;9.75;;;8.20;;
18931;SDS011;9598;50.954;3.112;2022-12-07T20:48:51;8.23;;;7.20;;
18931;SDS011;9598;50.954;3.112;2022-12-07T20:53:53;10.40;;;7.95;;
18931;SDS011;9598;50.954;3.112;2022-12-07T20:58:57;7.75;;;6.60;;
18931;SDS011;9598;50.954;3.112;2022-12-07T21:04:02;8.25;;;5.82;;
18931;SDS011;9598;50.954;3.112;2022-12-07T21:09:04;12.13;;;10.45;;
18931;SDS011;9598;50.954;3.112;2022-12-07T21:14:07;7.53;;;5.90;;
18931;SDS011;9598;50.954;3.112;2022-12-07T21:19:10;7.35;;;6.13;;
18931;SDS011;9598;50.954;3.112;2022-12-07T21:24:12;6.18;;;5.57;;
18931;SDS011;9598;50.954;3.112;2022-12-07T21:29:15;6.47;;;5.88;;
18931;SDS011;9598;50.954;3.112;2022-12-07T21:34:17;7.82;;;6.47;;
18931;SDS011;9598;50.954;3.112;2022-12-07T21:39:19;8.75;;;5.78;;
18931;SDS011;9598;50.954;3.112;2022-12-07T21:44:23;7.57;;;6.85;;
18931;SDS011;9598;50.954;3.112;2022-12-07T21:49:25;8.52;;;7.68;;
18931;SDS011;9598;50.954;3.112;2022-12-07T21:54:27;11.48;;;8.15;;
18931;SDS011;9598;50.954;3.112;2022-12-07T21:59:30;8.63;;;7.45;;
18931;SDS011;9598;50.954;3.112;2022-12-07T22:04:32;8.82;;;7.60;;
18931;SDS011;9598;50.954;3.112;2022-12-07T22:09:35;15.43;;;12.00;;
18931;SDS011;9598;50.954;3.112;2022-12-07T22:14:38;9.18;;;8.15;;
18931;SDS011;9598;50.954;3.112;2022-12-07T22:20:12;9.48;;;8.43;;
18931;SDS011;9598;50.954;3.112;2022-12-07T22:25:14;13.30;;;11.10;;
18931;SDS011;9598;50.954;3.112;2022-12-07T22:30:18;12.38;;;9.57;;
18931;SDS011;9598;50.954;3.112;2022-12-07T22:35:21;12.82;;;11.50;;
18931;SDS011;9598;50.954;3.112;2022-12-07T22:40:23;14.27;;;11.23;;
18931;SDS011;9598;50.954;3.112;2022-12-07T22:45:27;15.98;;;9.60;;
18931;SDS011;9598;50.954;3.112;2022-12-07T22:50:29;12.27;;;9.45;;
18931;SDS011;9598;50.954;3.112;2022-12-07T22:55:31;10.02;;;8.68;;
18931;SDS011;9598;50.954;3.112;2022-12-07T23:00:34;11.85;;;10.05;;
18931;SDS011;9598;50.954;3.112;2022-12-07T23:05:39;15.05;;;9.75;;
18931;SDS011;9598;50.954;3.112;2022-12-07T23:10:43;11.68;;;9.55;;
18931;SDS011;9598;50.954;3.112;2022-12-07T23:15:47;11.15;;;8.77;;
18931;SDS011;9598;50.954;3.112;2022-12-07T23:20:49;12.38;;;8.82;;
18931;SDS011;9598;50.954;3.112;2022-12-07T23:25:52;9.07;;;8.23;;
18931;SDS011;9598;50.954;3.112;2022-12-07T23:31:01;12.85;;;8.23;;
18931;SDS011;9598;50.954;3.112;2022-12-07T23:36:07;9.80;;;7.93;;
18931;SDS011;9598;50.954;3.112;2022-12-07T23:41:10;11.98;;;8.13;;
18931;SDS011;9598;50.954;3.112;2022-12-07T23:46:16;12.55;;;8.50;;
18931;SDS011;9598;50.954;3.112;2022-12-07T23:51:19;9.88;;;8.05;;
18931;SDS011;9598;50.954;3.112;2022-12-07T23:56:22;10.13;;;8.05;;
